sensor_id;sensor_type;location;lat;lon;timestamp;temperature;humidity
26703;DHT22;14316;51.074;3.704;2022-08-01T00:01:35;19.00;99.90
26703;DHT22;14316;51.074;3.704;2022-08-01T00:04:02;19.00;99.90
26703;DHT22;14316;51.074;3.704;2022-08-01T00:06:28;19.00;99.90
26703;DHT22;14316;51.074;3.704;2022-08-01T00:08:54;19.00;99.90
26703;DHT22;14316;51.074;3.704;2022-08-01T00:11:20;19.00;99.90
26703;DHT22;14316;51.074;3.704;2022-08-01T00:13:46;18.90;99.90
26703;DHT22;14316;51.074;3.704;2022-08-01T00:16:12;18.90;99.90
26703;DHT22;14316;51.074;3.704;2022-08-01T00:18:38;18.90;99.90
26703;DHT22;14316;51.074;3.704;2022-08-01T00:21:04;18.90;99.90
26703;DHT22;14316;51.074;3.704;2022-08-01T00:23:30;18.90;99.90
26703;DHT22;14316;51.074;3.704;2022-08-01T00:25:56;18.80;99.90
26703;DHT22;14316;51.074;3.704;2022-08-01T00:28:22;18.80;99.90
26703;DHT22;14316;51.074;3.704;2022-08-01T00:30:47;18.80;99.90
26703;DHT22;14316;51.074;3.704;2022-08-01T00:33:13;18.80;99.90
26703;DHT22;14316;51.074;3.704;2022-08-01T00:35:39;18.80;99.90
26703;DHT22;14316;51.074;3.704;2022-08-01T00:38:04;18.80;99.90
26703;DHT22;14316;51.074;3.704;2022-08-01T00:40:31;18.80;99.90
26703;DHT22;14316;51.074;3.704;2022-08-01T00:42:56;18.80;99.90
26703;DHT22;14316;51.074;3.704;2022-08-01T00:45:22;18.90;99.90
26703;DHT22;14316;51.074;3.704;2022-08-01T00:47:48;18.90;99.90
26703;DHT22;14316;51.074;3.704;2022-08-01T00:50:13;18.90;99.90
26703;DHT22;14316;51.074;3.704;2022-08-01T00:52:40;18.90;99.90
26703;DHT22;14316;51.074;3.704;2022-08-01T00:55:06;18.90;99.90
26703;DHT22;14316;51.074;3.704;2022-08-01T00:57:33;18.90;99.90
26703;DHT22;14316;51.074;3.704;2022-08-01T00:59:58;18.90;99.90
26703;DHT22;14316;51.074;3.704;2022-08-01T01:02:25;18.90;99.90
26703;DHT22;14316;51.074;3.704;2022-08-01T01:04:51;19.00;99.90
26703;DHT22;14316;51.074;3.704;2022-08-01T01:07:26;19.00;99.90
26703;DHT22;14316;51.074;3.704;2022-08-01T01:10:03;18.90;99.90
26703;DHT22;14316;51.074;3.704;2022-08-01T01:18:09;18.90;99.90
26703;DHT22;14316;51.074;3.704;2022-08-01T01:20:41;18.90;99.90
26703;DHT22;14316;51.074;3.704;2022-08-01T01:31:46;18.80;99.90
26703;DHT22;14316;51.074;3.704;2022-08-01T01:34:15;18.80;99.90
26703;DHT22;14316;51.074;3.704;2022-08-01T01:36:43;19.00;99.90
26703;DHT22;14316;51.074;3.704;2022-08-01T01:39:11;18.90;99.90
26703;DHT22;14316;51.074;3.704;2022-08-01T01:41:40;19.00;99.90
26703;DHT22;14316;51.074;3.704;2022-08-01T01:44:08;19.00;99.90
26703;DHT22;14316;51.074;3.704;2022-08-01T01:46:35;19.10;99.90
26703;DHT22;14316;51.074;3.704;2022-08-01T01:49:02;19.00;99.90
26703;DHT22;14316;51.074;3.704;2022-08-01T01:51:29;18.90;99.90
26703;DHT22;14316;51.074;3.704;2022-08-01T01:53:56;18.90;99.90
26703;DHT22;14316;51.074;3.704;2022-08-01T01:56:24;18.90;99.90
26703;DHT22;14316;51.074;3.704;2022-08-01T01:58:54;18.90;99.90
26703;DHT22;14316;51.074;3.704;2022-08-01T02:01:23;18.90;99.90
26703;DHT22;14316;51.074;3.704;2022-08-01T02:03:51;18.90;99.90
26703;DHT22;14316;51.074;3.704;2022-08-01T02:06:20;19.00;99.90
26703;DHT22;14316;51.074;3.704;2022-08-01T02:08:48;19.10;99.90
26703;DHT22;14316;51.074;3.704;2022-08-01T02:11:13;19.20;99.90
26703;DHT22;14316;51.074;3.704;2022-08-01T02:13:52;19.20;99.90
26703;DHT22;14316;51.074;3.704;2022-08-01T02:16:19;19.30;99.90
26703;DHT22;14316;51.074;3.704;2022-08-01T02:18:47;19.40;99.90
26703;DHT22;14316;51.074;3.704;2022-08-01T02:21:16;19.40;99.90
26703;DHT22;14316;51.074;3.704;2022-08-01T02:23:44;19.40;99.90
26703;DHT22;14316;51.074;3.704;2022-08-01T02:26:13;19.60;99.90
26703;DHT22;14316;51.074;3.704;2022-08-01T02:29:06;19.70;99.90
26703;DHT22;14316;51.074;3.704;2022-08-01T02:31:38;19.60;99.90
26703;DHT22;14316;51.074;3.704;2022-08-01T02:34:07;19.70;99.90
26703;DHT22;14316;51.074;3.704;2022-08-01T02:36:34;19.70;99.90
26703;DHT22;14316;51.074;3.704;2022-08-01T02:39:04;19.70;99.90
26703;DHT22;14316;51.074;3.704;2022-08-01T02:41:33;19.60;99.90
26703;DHT22;14316;51.074;3.704;2022-08-01T02:44:03;19.70;99.90
26703;DHT22;14316;51.074;3.704;2022-08-01T02:46:38;19.60;99.90
26703;DHT22;14316;51.074;3.704;2022-08-01T02:49:07;19.70;99.90
26703;DHT22;14316;51.074;3.704;2022-08-01T02:51:35;19.70;99.90
26703;DHT22;14316;51.074;3.704;2022-08-01T02:54:03;19.70;99.90
26703;DHT22;14316;51.074;3.704;2022-08-01T02:56:32;19.70;99.90
26703;DHT22;14316;51.074;3.704;2022-08-01T02:59:07;19.60;99.90
26703;DHT22;14316;51.074;3.704;2022-08-01T03:01:34;19.60;99.90
26703;DHT22;14316;51.074;3.704;2022-08-01T03:04:02;19.70;99.90
26703;DHT22;14316;51.074;3.704;2022-08-01T03:06:29;19.70;99.90
26703;DHT22;14316;51.074;3.704;2022-08-01T03:08:56;19.80;99.90
26703;DHT22;14316;51.074;3.704;2022-08-01T03:11:23;19.70;99.90
26703;DHT22;14316;51.074;3.704;2022-08-01T03:13:51;19.70;99.90
26703;DHT22;14316;51.074;3.704;2022-08-01T03:16:19;19.60;99.90
26703;DHT22;14316;51.074;3.704;2022-08-01T03:18:47;19.70;99.90
26703;DHT22;14316;51.074;3.704;2022-08-01T03:21:15;19.70;99.90
26703;DHT22;14316;51.074;3.704;2022-08-01T03:23:42;19.70;99.90
26703;DHT22;14316;51.074;3.704;2022-08-01T03:26:11;19.70;99.90
26703;DHT22;14316;51.074;3.704;2022-08-01T03:28:37;19.70;99.90
26703;DHT22;14316;51.074;3.704;2022-08-01T03:31:04;19.70;99.90
26703;DHT22;14316;51.074;3.704;2022-08-01T03:33:31;19.50;99.90
26703;DHT22;14316;51.074;3.704;2022-08-01T03:36:00;19.40;99.90
26703;DHT22;14316;51.074;3.704;2022-08-01T03:38:30;19.50;99.90
26703;DHT22;14316;51.074;3.704;2022-08-01T03:41:09;19.60;99.90
26703;DHT22;14316;51.074;3.704;2022-08-01T03:43:41;19.60;99.90
26703;DHT22;14316;51.074;3.704;2022-08-01T03:46:20;19.50;99.90
26703;DHT22;14316;51.074;3.704;2022-08-01T03:48:53;19.50;99.90
26703;DHT22;14316;51.074;3.704;2022-08-01T03:51:21;19.50;99.90
26703;DHT22;14316;51.074;3.704;2022-08-01T03:53:48;19.50;99.90
26703;DHT22;14316;51.074;3.704;2022-08-01T03:56:18;19.60;99.90
26703;DHT22;14316;51.074;3.704;2022-08-01T03:58:48;19.60;99.90
26703;DHT22;14316;51.074;3.704;2022-08-01T04:01:15;19.60;99.90
26703;DHT22;14316;51.074;3.704;2022-08-01T04:03:42;19.60;99.90
26703;DHT22;14316;51.074;3.704;2022-08-01T04:06:07;19.50;99.90
26703;DHT22;14316;51.074;3.704;2022-08-01T04:08:39;19.50;99.90
26703;DHT22;14316;51.074;3.704;2022-08-01T04:11:08;19.50;99.90
26703;DHT22;14316;51.074;3.704;2022-08-01T04:13:34;19.50;99.90
26703;DHT22;14316;51.074;3.704;2022-08-01T04:16:00;19.50;99.90
26703;DHT22;14316;51.074;3.704;2022-08-01T04:18:26;19.50;99.90
26703;DHT22;14316;51.074;3.704;2022-08-01T04:20:51;19.40;99.90
26703;DHT22;14316;51.074;3.704;2022-08-01T04:23:21;19.40;99.90
26703;DHT22;14316;51.074;3.704;2022-08-01T04:25:48;19.30;99.90
26703;DHT22;14316;51.074;3.704;2022-08-01T04:28:16;19.40;99.90
26703;DHT22;14316;51.074;3.704;2022-08-01T04:30:44;19.30;99.90
26703;DHT22;14316;51.074;3.704;2022-08-01T04:33:13;19.30;99.90
26703;DHT22;14316;51.074;3.704;2022-08-01T04:35:44;19.30;99.90
26703;DHT22;14316;51.074;3.704;2022-08-01T04:38:13;19.30;99.90
26703;DHT22;14316;51.074;3.704;2022-08-01T04:40:42;19.30;99.90
26703;DHT22;14316;51.074;3.704;2022-08-01T04:43:11;19.30;99.90
26703;DHT22;14316;51.074;3.704;2022-08-01T04:45:39;19.30;99.90
26703;DHT22;14316;51.074;3.704;2022-08-01T04:48:05;19.30;99.90
26703;DHT22;14316;51.074;3.704;2022-08-01T04:50:32;19.30;99.90
26703;DHT22;14316;51.074;3.704;2022-08-01T04:52:58;19.30;99.90
26703;DHT22;14316;51.074;3.704;2022-08-01T04:55:23;19.30;99.90
26703;DHT22;14316;51.074;3.704;2022-08-01T04:57:49;19.30;99.90
26703;DHT22;14316;51.074;3.704;2022-08-01T05:00:16;19.30;99.90
26703;DHT22;14316;51.074;3.704;2022-08-01T05:02:42;19.30;99.90
26703;DHT22;14316;51.074;3.704;2022-08-01T05:05:08;19.30;99.90
26703;DHT22;14316;51.074;3.704;2022-08-01T05:07:35;19.20;99.90
26703;DHT22;14316;51.074;3.704;2022-08-01T05:10:02;19.20;99.90
26703;DHT22;14316;51.074;3.704;2022-08-01T05:12:29;19.20;99.90
26703;DHT22;14316;51.074;3.704;2022-08-01T05:14:54;19.30;99.90
26703;DHT22;14316;51.074;3.704;2022-08-01T05:17:21;19.50;99.90
26703;DHT22;14316;51.074;3.704;2022-08-01T05:19:46;19.50;99.90
26703;DHT22;14316;51.074;3.704;2022-08-01T05:22:12;19.60;99.90
26703;DHT22;14316;51.074;3.704;2022-08-01T05:24:39;19.70;99.90
26703;DHT22;14316;51.074;3.704;2022-08-01T05:27:06;19.70;99.90
26703;DHT22;14316;51.074;3.704;2022-08-01T05:29:33;19.70;99.90
26703;DHT22;14316;51.074;3.704;2022-08-01T05:31:59;19.80;99.90
26703;DHT22;14316;51.074;3.704;2022-08-01T05:34:25;19.90;99.90
26703;DHT22;14316;51.074;3.704;2022-08-01T05:36:52;19.90;99.90
26703;DHT22;14316;51.074;3.704;2022-08-01T05:39:18;19.90;99.90
26703;DHT22;14316;51.074;3.704;2022-08-01T05:41:43;19.90;99.90
26703;DHT22;14316;51.074;3.704;2022-08-01T05:44:09;20.00;99.90
26703;DHT22;14316;51.074;3.704;2022-08-01T05:46:35;20.00;99.90
26703;DHT22;14316;51.074;3.704;2022-08-01T05:49:03;20.00;99.90
26703;DHT22;14316;51.074;3.704;2022-08-01T05:51:29;19.90;99.90
26703;DHT22;14316;51.074;3.704;2022-08-01T05:53:55;19.80;99.90
26703;DHT22;14316;51.074;3.704;2022-08-01T05:56:21;19.80;99.90
26703;DHT22;14316;51.074;3.704;2022-08-01T05:58:48;19.90;99.90
26703;DHT22;14316;51.074;3.704;2022-08-01T06:01:15;19.90;99.90
26703;DHT22;14316;51.074;3.704;2022-08-01T06:03:41;19.90;99.90
26703;DHT22;14316;51.074;3.704;2022-08-01T06:06:07;20.00;99.90
26703;DHT22;14316;51.074;3.704;2022-08-01T06:08:32;20.20;99.90
26703;DHT22;14316;51.074;3.704;2022-08-01T06:10:58;20.40;99.90
26703;DHT22;14316;51.074;3.704;2022-08-01T06:13:25;20.60;99.90
26703;DHT22;14316;51.074;3.704;2022-08-01T06:15:51;20.80;99.90
26703;DHT22;14316;51.074;3.704;2022-08-01T06:18:17;21.00;99.90
26703;DHT22;14316;51.074;3.704;2022-08-01T06:20:43;21.30;99.90
26703;DHT22;14316;51.074;3.704;2022-08-01T06:23:09;21.50;99.90
26703;DHT22;14316;51.074;3.704;2022-08-01T06:25:36;21.50;99.90
26703;DHT22;14316;51.074;3.704;2022-08-01T06:28:02;21.60;99.90
26703;DHT22;14316;51.074;3.704;2022-08-01T06:30:27;21.70;99.90
26703;DHT22;14316;51.074;3.704;2022-08-01T06:32:54;21.70;99.90
26703;DHT22;14316;51.074;3.704;2022-08-01T06:35:21;21.90;99.90
26703;DHT22;14316;51.074;3.704;2022-08-01T06:37:47;21.90;99.90
26703;DHT22;14316;51.074;3.704;2022-08-01T06:40:14;21.90;99.90
26703;DHT22;14316;51.074;3.704;2022-08-01T06:42:40;21.90;99.90
26703;DHT22;14316;51.074;3.704;2022-08-01T06:45:10;22.00;99.90
26703;DHT22;14316;51.074;3.704;2022-08-01T06:47:37;22.00;99.90
26703;DHT22;14316;51.074;3.704;2022-08-01T06:50:05;22.00;99.90
26703;DHT22;14316;51.074;3.704;2022-08-01T06:52:30;22.10;99.90
26703;DHT22;14316;51.074;3.704;2022-08-01T06:54:56;22.00;99.90
26703;DHT22;14316;51.074;3.704;2022-08-01T06:57:22;22.00;99.90
26703;DHT22;14316;51.074;3.704;2022-08-01T06:59:48;22.00;99.90
26703;DHT22;14316;51.074;3.704;2022-08-01T07:02:13;22.20;99.90
26703;DHT22;14316;51.074;3.704;2022-08-01T07:04:39;22.30;99.90
26703;DHT22;14316;51.074;3.704;2022-08-01T07:07:05;22.40;99.90
26703;DHT22;14316;51.074;3.704;2022-08-01T07:09:30;22.60;99.90
26703;DHT22;14316;51.074;3.704;2022-08-01T07:11:56;22.70;99.90
26703;DHT22;14316;51.074;3.704;2022-08-01T07:14:24;22.70;99.90
26703;DHT22;14316;51.074;3.704;2022-08-01T07:16:50;22.70;99.90
26703;DHT22;14316;51.074;3.704;2022-08-01T07:19:16;22.90;99.90
26703;DHT22;14316;51.074;3.704;2022-08-01T07:21:42;23.00;99.90
26703;DHT22;14316;51.074;3.704;2022-08-01T07:24:10;22.80;99.90
26703;DHT22;14316;51.074;3.704;2022-08-01T07:26:36;22.70;99.90
26703;DHT22;14316;51.074;3.704;2022-08-01T07:29:10;22.60;99.90
26703;DHT22;14316;51.074;3.704;2022-08-01T07:31:36;22.60;99.90
26703;DHT22;14316;51.074;3.704;2022-08-01T07:34:02;22.70;99.90
26703;DHT22;14316;51.074;3.704;2022-08-01T07:36:28;22.80;99.90
26703;DHT22;14316;51.074;3.704;2022-08-01T07:38:54;23.00;99.90
26703;DHT22;14316;51.074;3.704;2022-08-01T07:41:20;23.00;99.90
26703;DHT22;14316;51.074;3.704;2022-08-01T07:43:50;23.20;99.90
26703;DHT22;14316;51.074;3.704;2022-08-01T07:46:18;23.30;99.90
26703;DHT22;14316;51.074;3.704;2022-08-01T07:48:44;23.20;99.90
26703;DHT22;14316;51.074;3.704;2022-08-01T07:51:11;23.10;99.90
26703;DHT22;14316;51.074;3.704;2022-08-01T07:53:37;23.20;99.90
26703;DHT22;14316;51.074;3.704;2022-08-01T07:56:03;23.00;99.90
26703;DHT22;14316;51.074;3.704;2022-08-01T07:58:31;22.80;99.90
26703;DHT22;14316;51.074;3.704;2022-08-01T08:00:57;23.00;99.90
26703;DHT22;14316;51.074;3.704;2022-08-01T08:03:24;23.10;99.90
26703;DHT22;14316;51.074;3.704;2022-08-01T08:05:50;23.40;99.90
26703;DHT22;14316;51.074;3.704;2022-08-01T08:08:16;23.70;99.90
26703;DHT22;14316;51.074;3.704;2022-08-01T08:10:43;23.80;99.90
26703;DHT22;14316;51.074;3.704;2022-08-01T08:13:09;23.80;99.90
26703;DHT22;14316;51.074;3.704;2022-08-01T08:15:36;23.90;99.90
26703;DHT22;14316;51.074;3.704;2022-08-01T08:18:03;23.70;99.90
26703;DHT22;14316;51.074;3.704;2022-08-01T08:20:33;23.70;99.90
26703;DHT22;14316;51.074;3.704;2022-08-01T08:23:02;23.70;99.90
26703;DHT22;14316;51.074;3.704;2022-08-01T08:25:50;23.90;99.90
26703;DHT22;14316;51.074;3.704;2022-08-01T08:28:16;24.20;99.90
26703;DHT22;14316;51.074;3.704;2022-08-01T08:30:42;24.30;99.90
26703;DHT22;14316;51.074;3.704;2022-08-01T08:33:08;24.30;99.90
26703;DHT22;14316;51.074;3.704;2022-08-01T08:35:34;24.30;99.90
26703;DHT22;14316;51.074;3.704;2022-08-01T08:38:00;24.60;99.90
26703;DHT22;14316;51.074;3.704;2022-08-01T08:40:29;24.50;99.90
26703;DHT22;14316;51.074;3.704;2022-08-01T08:42:58;24.60;99.90
26703;DHT22;14316;51.074;3.704;2022-08-01T08:45:33;24.30;99.90
26703;DHT22;14316;51.074;3.704;2022-08-01T08:48:00;24.40;99.90
26703;DHT22;14316;51.074;3.704;2022-08-01T08:50:38;24.60;99.90
26703;DHT22;14316;51.074;3.704;2022-08-01T08:53:18;24.70;99.90
26703;DHT22;14316;51.074;3.704;2022-08-01T08:56:00;24.80;99.90
26703;DHT22;14316;51.074;3.704;2022-08-01T09:01:12;25.90;99.90
26703;DHT22;14316;51.074;3.704;2022-08-01T09:03:42;26.60;99.90
26703;DHT22;14316;51.074;3.704;2022-08-01T09:06:10;25.20;99.90
26703;DHT22;14316;51.074;3.704;2022-08-01T09:08:37;26.50;99.90
26703;DHT22;14316;51.074;3.704;2022-08-01T09:11:08;26.90;99.90
26703;DHT22;14316;51.074;3.704;2022-08-01T09:16:16;26.80;99.90
26703;DHT22;14316;51.074;3.704;2022-08-01T09:18:47;26.60;99.90
26703;DHT22;14316;51.074;3.704;2022-08-01T09:21:20;26.20;99.90
26703;DHT22;14316;51.074;3.704;2022-08-01T09:23:53;26.00;99.90
26703;DHT22;14316;51.074;3.704;2022-08-01T09:26:29;26.00;99.90
26703;DHT22;14316;51.074;3.704;2022-08-01T09:28:56;26.00;99.90
26703;DHT22;14316;51.074;3.704;2022-08-01T09:31:26;25.70;99.90
26703;DHT22;14316;51.074;3.704;2022-08-01T09:34:00;26.30;99.90
26703;DHT22;14316;51.074;3.704;2022-08-01T09:37:07;26.80;99.90
26703;DHT22;14316;51.074;3.704;2022-08-01T09:39:35;27.10;99.90
26703;DHT22;14316;51.074;3.704;2022-08-01T09:42:27;27.60;99.90
26703;DHT22;14316;51.074;3.704;2022-08-01T09:44:53;27.60;99.90
26703;DHT22;14316;51.074;3.704;2022-08-01T09:47:20;28.20;99.90
26703;DHT22;14316;51.074;3.704;2022-08-01T09:49:54;28.70;99.90
26703;DHT22;14316;51.074;3.704;2022-08-01T09:52:27;28.90;99.90
26703;DHT22;14316;51.074;3.704;2022-08-01T09:55:05;28.20;99.90
26703;DHT22;14316;51.074;3.704;2022-08-01T09:57:31;27.70;99.90
26703;DHT22;14316;51.074;3.704;2022-08-01T09:59:59;27.60;99.90
26703;DHT22;14316;51.074;3.704;2022-08-01T10:02:40;27.30;99.90
26703;DHT22;14316;51.074;3.704;2022-08-01T10:05:09;27.20;99.90
26703;DHT22;14316;51.074;3.704;2022-08-01T10:07:36;27.60;99.90
26703;DHT22;14316;51.074;3.704;2022-08-01T10:10:20;26.30;99.90
26703;DHT22;14316;51.074;3.704;2022-08-01T10:12:47;26.80;99.90
26703;DHT22;14316;51.074;3.704;2022-08-01T10:15:17;26.40;99.90
26703;DHT22;14316;51.074;3.704;2022-08-01T10:17:54;26.90;99.90
26703;DHT22;14316;51.074;3.704;2022-08-01T10:20:28;26.90;99.90
26703;DHT22;14316;51.074;3.704;2022-08-01T10:22:57;27.10;99.90
26703;DHT22;14316;51.074;3.704;2022-08-01T10:25:24;26.60;99.90
26703;DHT22;14316;51.074;3.704;2022-08-01T10:27:53;26.40;99.90
26703;DHT22;14316;51.074;3.704;2022-08-01T10:30:23;26.90;99.90
26703;DHT22;14316;51.074;3.704;2022-08-01T10:32:50;27.50;99.90
26703;DHT22;14316;51.074;3.704;2022-08-01T10:35:18;27.70;99.90
26703;DHT22;14316;51.074;3.704;2022-08-01T10:37:46;28.30;99.90
26703;DHT22;14316;51.074;3.704;2022-08-01T10:40:13;28.40;99.90
26703;DHT22;14316;51.074;3.704;2022-08-01T10:42:42;28.70;99.90
26703;DHT22;14316;51.074;3.704;2022-08-01T10:45:09;28.40;99.90
26703;DHT22;14316;51.074;3.704;2022-08-01T10:50:34;27.20;99.90
26703;DHT22;14316;51.074;3.704;2022-08-01T10:53:15;27.60;99.90
26703;DHT22;14316;51.074;3.704;2022-08-01T10:58:27;27.80;99.90
26703;DHT22;14316;51.074;3.704;2022-08-01T11:03:40;28.40;99.90
26703;DHT22;14316;51.074;3.704;2022-08-01T11:06:06;28.60;99.90
26703;DHT22;14316;51.074;3.704;2022-08-01T11:08:41;28.60;99.90
26703;DHT22;14316;51.074;3.704;2022-08-01T11:11:08;30.10;99.90
26703;DHT22;14316;51.074;3.704;2022-08-01T11:16:39;31.20;99.90
26703;DHT22;14316;51.074;3.704;2022-08-01T11:19:06;31.00;99.90
26703;DHT22;14316;51.074;3.704;2022-08-01T11:27:19;32.50;99.90
26703;DHT22;14316;51.074;3.704;2022-08-01T11:32:45;32.60;99.90
26703;DHT22;14316;51.074;3.704;2022-08-01T11:35:12;32.10;99.90
26703;DHT22;14316;51.074;3.704;2022-08-01T11:37:37;32.60;99.90
26703;DHT22;14316;51.074;3.704;2022-08-01T11:40:29;32.00;99.90
26703;DHT22;14316;51.074;3.704;2022-08-01T11:45:53;32.20;99.90
26703;DHT22;14316;51.074;3.704;2022-08-01T11:48:26;31.90;99.90
26703;DHT22;14316;51.074;3.704;2022-08-01T11:50:54;32.70;99.90
26703;DHT22;14316;51.074;3.704;2022-08-01T11:53:21;33.20;99.90
26703;DHT22;14316;51.074;3.704;2022-08-01T11:55:57;31.90;99.60
26703;DHT22;14316;51.074;3.704;2022-08-01T11:58:26;31.80;99.90
26703;DHT22;14316;51.074;3.704;2022-08-01T12:00:56;31.10;98.70
26703;DHT22;14316;51.074;3.704;2022-08-01T12:03:29;30.70;99.40
26703;DHT22;14316;51.074;3.704;2022-08-01T12:05:57;31.60;99.90
26703;DHT22;14316;51.074;3.704;2022-08-01T12:08:31;32.90;99.90
26703;DHT22;14316;51.074;3.704;2022-08-01T12:11:00;35.20;97.50
26703;DHT22;14316;51.074;3.704;2022-08-01T12:13:27;35.50;95.30
26703;DHT22;14316;51.074;3.704;2022-08-01T12:15:54;35.70;94.80
26703;DHT22;14316;51.074;3.704;2022-08-01T12:18:20;35.80;92.80
26703;DHT22;14316;51.074;3.704;2022-08-01T12:20:46;35.80;92.20
26703;DHT22;14316;51.074;3.704;2022-08-01T12:23:15;38.20;92.10
26703;DHT22;14316;51.074;3.704;2022-08-01T12:25:41;38.90;83.20
26703;DHT22;14316;51.074;3.704;2022-08-01T12:28:11;38.20;84.90
26703;DHT22;14316;51.074;3.704;2022-08-01T12:30:39;37.30;81.70
26703;DHT22;14316;51.074;3.704;2022-08-01T12:33:08;36.50;82.50
26703;DHT22;14316;51.074;3.704;2022-08-01T12:35:35;36.50;86.40
26703;DHT22;14316;51.074;3.704;2022-08-01T12:38:04;37.20;80.30
26703;DHT22;14316;51.074;3.704;2022-08-01T12:40:36;39.70;83.40
26703;DHT22;14316;51.074;3.704;2022-08-01T12:43:04;38.30;76.80
26703;DHT22;14316;51.074;3.704;2022-08-01T12:47:59;40.90;73.10
26703;DHT22;14316;51.074;3.704;2022-08-01T12:50:29;42.20;67.80
26703;DHT22;14316;51.074;3.704;2022-08-01T12:52:56;43.10;62.30
26703;DHT22;14316;51.074;3.704;2022-08-01T12:55:24;39.30;65.50
26703;DHT22;14316;51.074;3.704;2022-08-01T12:58:03;35.50;68.60
26703;DHT22;14316;51.074;3.704;2022-08-01T13:00:30;36.20;71.00
26703;DHT22;14316;51.074;3.704;2022-08-01T13:03:05;38.20;68.00
26703;DHT22;14316;51.074;3.704;2022-08-01T13:05:48;39.10;65.50
26703;DHT22;14316;51.074;3.704;2022-08-01T13:08:29;36.60;65.90
26703;DHT22;14316;51.074;3.704;2022-08-01T13:11:11;35.20;65.70
26703;DHT22;14316;51.074;3.704;2022-08-01T13:13:49;33.70;69.70
26703;DHT22;14316;51.074;3.704;2022-08-01T13:16:21;35.10;68.60
26703;DHT22;14316;51.074;3.704;2022-08-01T13:19:05;37.30;68.30
26703;DHT22;14316;51.074;3.704;2022-08-01T13:21:34;38.80;65.70
26703;DHT22;14316;51.074;3.704;2022-08-01T13:24:04;41.00;57.60
26703;DHT22;14316;51.074;3.704;2022-08-01T13:26:42;41.50;58.80
26703;DHT22;14316;51.074;3.704;2022-08-01T13:29:09;43.10;56.80
26703;DHT22;14316;51.074;3.704;2022-08-01T13:31:36;42.70;54.80
26703;DHT22;14316;51.074;3.704;2022-08-01T13:34:03;42.60;53.80
26703;DHT22;14316;51.074;3.704;2022-08-01T13:36:29;43.10;52.60
26703;DHT22;14316;51.074;3.704;2022-08-01T13:38:57;41.50;52.10
26703;DHT22;14316;51.074;3.704;2022-08-01T13:41:42;40.20;55.10
26703;DHT22;14316;51.074;3.704;2022-08-01T13:44:08;41.00;55.40
26703;DHT22;14316;51.074;3.704;2022-08-01T13:46:36;43.00;51.10
26703;DHT22;14316;51.074;3.704;2022-08-01T13:49:03;43.70;50.40
26703;DHT22;14316;51.074;3.704;2022-08-01T13:51:29;44.90;49.20
26703;DHT22;14316;51.074;3.704;2022-08-01T13:53:54;44.80;50.00
26703;DHT22;14316;51.074;3.704;2022-08-01T13:56:20;44.60;47.50
26703;DHT22;14316;51.074;3.704;2022-08-01T13:58:49;43.50;45.80
26703;DHT22;14316;51.074;3.704;2022-08-01T14:01:16;43.40;47.70
26703;DHT22;14316;51.074;3.704;2022-08-01T14:03:42;44.00;46.10
26703;DHT22;14316;51.074;3.704;2022-08-01T14:06:07;43.60;46.30
26703;DHT22;14316;51.074;3.704;2022-08-01T14:08:33;44.30;46.50
26703;DHT22;14316;51.074;3.704;2022-08-01T14:10:59;44.20;44.50
26703;DHT22;14316;51.074;3.704;2022-08-01T14:13:28;44.00;44.50
26703;DHT22;14316;51.074;3.704;2022-08-01T14:15:55;44.10;46.10
26703;DHT22;14316;51.074;3.704;2022-08-01T14:18:21;43.50;44.60
26703;DHT22;14316;51.074;3.704;2022-08-01T14:20:47;45.10;46.60
26703;DHT22;14316;51.074;3.704;2022-08-01T14:23:13;45.30;43.50
26703;DHT22;14316;51.074;3.704;2022-08-01T14:25:40;44.30;43.70
26703;DHT22;14316;51.074;3.704;2022-08-01T14:28:06;44.50;45.60
26703;DHT22;14316;51.074;3.704;2022-08-01T14:30:33;43.50;44.60
26703;DHT22;14316;51.074;3.704;2022-08-01T14:32:59;41.40;45.30
26703;DHT22;14316;51.074;3.704;2022-08-01T14:35:25;39.90;47.10
26703;DHT22;14316;51.074;3.704;2022-08-01T14:37:52;40.20;47.10
26703;DHT22;14316;51.074;3.704;2022-08-01T14:40:17;42.20;45.50
26703;DHT22;14316;51.074;3.704;2022-08-01T14:42:43;43.30;46.20
26703;DHT22;14316;51.074;3.704;2022-08-01T14:45:13;44.50;46.30
26703;DHT22;14316;51.074;3.704;2022-08-01T14:47:40;44.90;42.10
26703;DHT22;14316;51.074;3.704;2022-08-01T14:50:13;42.70;42.60
26703;DHT22;14316;51.074;3.704;2022-08-01T14:52:40;42.20;43.60
26703;DHT22;14316;51.074;3.704;2022-08-01T14:55:08;42.00;44.70
26703;DHT22;14316;51.074;3.704;2022-08-01T14:57:35;43.00;42.10
26703;DHT22;14316;51.074;3.704;2022-08-01T15:00:02;42.80;42.20
26703;DHT22;14316;51.074;3.704;2022-08-01T15:02:29;43.40;41.60
26703;DHT22;14316;51.074;3.704;2022-08-01T15:04:55;44.60;42.80
26703;DHT22;14316;51.074;3.704;2022-08-01T15:07:20;44.00;41.30
26703;DHT22;14316;51.074;3.704;2022-08-01T15:09:46;45.70;41.40
26703;DHT22;14316;51.074;3.704;2022-08-01T15:12:12;46.40;39.50
26703;DHT22;14316;51.074;3.704;2022-08-01T15:14:39;49.00;39.80
26703;DHT22;14316;51.074;3.704;2022-08-01T15:17:20;51.10;38.20
26703;DHT22;14316;51.074;3.704;2022-08-01T15:19:47;52.60;38.30
26703;DHT22;14316;51.074;3.704;2022-08-01T15:22:15;52.00;35.00
26703;DHT22;14316;51.074;3.704;2022-08-01T15:24:51;51.40;34.50
26703;DHT22;14316;51.074;3.704;2022-08-01T15:27:30;49.10;35.50
26703;DHT22;14316;51.074;3.704;2022-08-01T15:30:08;47.10;35.10
26703;DHT22;14316;51.074;3.704;2022-08-01T15:32:42;48.10;37.80
26703;DHT22;14316;51.074;3.704;2022-08-01T15:35:13;49.30;33.90
26703;DHT22;14316;51.074;3.704;2022-08-01T15:37:38;50.30;35.40
26703;DHT22;14316;51.074;3.704;2022-08-01T15:40:04;49.10;38.10
26703;DHT22;14316;51.074;3.704;2022-08-01T15:42:30;47.80;35.20
26703;DHT22;14316;51.074;3.704;2022-08-01T15:45:11;48.10;38.30
26703;DHT22;14316;51.074;3.704;2022-08-01T15:47:44;47.10;36.50
26703;DHT22;14316;51.074;3.704;2022-08-01T15:50:10;48.40;36.00
26703;DHT22;14316;51.074;3.704;2022-08-01T15:52:36;49.40;36.20
26703;DHT22;14316;51.074;3.704;2022-08-01T15:55:02;48.10;34.70
26703;DHT22;14316;51.074;3.704;2022-08-01T15:57:28;46.80;35.40
26703;DHT22;14316;51.074;3.704;2022-08-01T15:59:54;48.20;36.20
26703;DHT22;14316;51.074;3.704;2022-08-01T16:02:20;47.20;34.20
26703;DHT22;14316;51.074;3.704;2022-08-01T16:04:46;46.80;34.60
26703;DHT22;14316;51.074;3.704;2022-08-01T16:07:12;46.20;36.10
26703;DHT22;14316;51.074;3.704;2022-08-01T16:09:38;47.80;34.10
26703;DHT22;14316;51.074;3.704;2022-08-01T16:12:04;49.30;34.50
26703;DHT22;14316;51.074;3.704;2022-08-01T16:14:30;47.30;35.50
26703;DHT22;14316;51.074;3.704;2022-08-01T16:16:56;48.60;35.50
26703;DHT22;14316;51.074;3.704;2022-08-01T16:19:22;48.90;34.50
26703;DHT22;14316;51.074;3.704;2022-08-01T16:21:48;47.80;33.00
26703;DHT22;14316;51.074;3.704;2022-08-01T16:24:14;47.80;35.90